createdAt,value
2019-03-18T00:00:24.677Z,100974.97
2019-03-18T00:02:53.329Z,100974.71
2019-03-18T00:05:22.060Z,100975.25
2019-03-18T00:07:50.617Z,100975.27
2019-03-18T00:10:19.197Z,100977.12
2019-03-18T00:12:47.769Z,100977.41
2019-03-18T00:15:16.392Z,100982.48
2019-03-18T00:17:45.090Z,100981.42
2019-03-18T00:20:13.667Z,100982.79
2019-03-18T00:22:42.208Z,100984.68
2019-03-18T00:25:15.695Z,100992.19
2019-03-18T00:27:44.968Z,100992.45
2019-03-18T00:30:17.727Z,100998.86
2019-03-18T00:32:46.346Z,100995.33
2019-03-18T00:35:15.073Z,100998.84
2019-03-18T00:37:43.649Z,101003.45
2019-03-18T00:40:16.461Z,101004.80
2019-03-18T00:42:44.962Z,101011.25
2019-03-18T00:45:15.024Z,101008.02
2019-03-18T00:47:44.190Z,101008.30
2019-03-18T00:50:16.665Z,101012.59
2019-03-18T00:52:45.257Z,101009.38
2019-03-18T00:55:14.150Z,101009.94
2019-03-18T00:57:42.743Z,101006.19
2019-03-18T01:00:15.892Z,101009.40
2019-03-18T01:02:44.587Z,101012.61
2019-03-18T01:05:13.207Z,101006.14
2019-03-18T01:07:41.776Z,101019.27
2019-03-18T01:10:12.176Z,101012.83
2019-03-18T01:12:40.786Z,101017.39
2019-03-18T01:15:10.691Z,101016.83
2019-03-18T01:17:39.279Z,101014.95
2019-03-18T01:20:15.077Z,101017.91
2019-03-18T01:22:43.663Z,101012.53
2019-03-18T01:25:12.364Z,101019.00
2019-03-18T01:27:41.620Z,101018.48
2019-03-18T01:30:14.228Z,101024.14
2019-03-18T01:32:42.812Z,101019.61
2019-03-18T01:35:11.832Z,101026.61
2019-03-18T01:37:40.398Z,101028.73
2019-03-18T01:40:16.086Z,101030.30
2019-03-18T01:42:44.579Z,101028.12
2019-03-18T01:45:13.156Z,101031.85
2019-03-18T01:47:41.550Z,101028.63
2019-03-18T01:50:14.006Z,101025.19
2019-03-18T01:52:42.520Z,101031.36
2019-03-18T01:55:11.123Z,101026.28
2019-03-18T01:57:39.721Z,101029.24
2019-03-18T02:00:11.200Z,101024.66
2019-03-18T02:02:39.766Z,101027.63
2019-03-18T02:05:09.821Z,101021.71
2019-03-18T02:07:38.409Z,101020.92
2019-03-18T02:10:16.730Z,101019.59
2019-03-18T02:12:45.359Z,101025.50
2019-03-18T02:15:14.622Z,101021.98
2019-03-18T02:17:43.459Z,101020.91
2019-03-18T02:20:14.412Z,101023.30
2019-03-18T02:22:43.066Z,101029.75
2019-03-18T02:25:12.056Z,101031.38
2019-03-18T02:27:40.707Z,101033.81
2019-03-18T02:30:14.502Z,101035.98
2019-03-18T02:32:43.153Z,101033.86
2019-03-18T02:35:11.927Z,101030.36
2019-03-18T02:37:40.542Z,101035.77
2019-03-18T02:40:12.676Z,101034.70
2019-03-18T02:42:41.340Z,101039.79
2019-03-18T02:45:12.826Z,101051.08
2019-03-18T02:47:41.388Z,101078.52
2019-03-18T02:50:10.584Z,101087.39
2019-03-18T02:52:39.214Z,101097.31
2019-03-18T02:55:08.757Z,101100.80
2019-03-18T02:57:37.435Z,101086.80
2019-03-18T03:00:11.363Z,101082.98
2019-03-18T03:02:39.988Z,101083.78
2019-03-18T03:05:10.765Z,101086.18
2019-03-18T03:07:40.392Z,101088.59
2019-03-18T03:10:10.930Z,101088.06
2019-03-18T03:12:40.470Z,101094.02
2019-03-18T03:15:11.207Z,101091.66
2019-03-18T03:17:39.816Z,101093.28
2019-03-18T03:20:10.467Z,101099.49
2019-03-18T03:22:39.041Z,101092.52
2019-03-18T03:25:09.410Z,101098.44
2019-03-18T03:27:38.210Z,101098.94
2019-03-18T03:30:09.736Z,101105.89
2019-03-18T03:32:38.320Z,101107.49
2019-03-18T03:35:07.509Z,101108.56
2019-03-18T03:37:36.087Z,101097.58
2019-03-18T03:40:06.493Z,101105.10
2019-03-18T03:42:35.094Z,101100.82
2019-03-18T03:45:04.435Z,101100.84
2019-03-18T03:47:33.089Z,101111.33
2019-03-18T03:50:01.718Z,101112.16
2019-03-18T03:52:30.271Z,101105.95
2019-03-18T03:54:58.715Z,101116.20
2019-03-18T03:57:27.477Z,101123.16
2019-03-18T03:59:57.102Z,101129.09
2019-03-18T04:02:25.600Z,101129.66
2019-03-18T04:04:54.183Z,101127.22
2019-03-18T04:07:22.792Z,101134.45
2019-03-18T04:09:51.456Z,101137.41
2019-03-18T04:12:20.177Z,101141.16
2019-03-18T04:14:48.689Z,101146.28
2019-03-18T04:17:17.316Z,101144.38
2019-03-18T04:19:45.827Z,101142.78
2019-03-18T04:22:14.331Z,101146.02
2019-03-18T04:24:42.903Z,101151.14
2019-03-18T04:27:11.381Z,101148.98
2019-03-18T04:29:39.937Z,101152.52
2019-03-18T04:32:08.513Z,101153.58
2019-03-18T04:34:37.122Z,101153.59
2019-03-18T04:37:05.700Z,101157.89
2019-03-18T04:39:34.341Z,101157.84
2019-03-18T04:42:02.923Z,101158.34
2019-03-18T04:44:31.510Z,101169.06
2019-03-18T04:46:59.947Z,101175.73
2019-03-18T04:49:28.480Z,101171.70
2019-03-18T04:51:57.261Z,101175.52
2019-03-18T04:54:25.843Z,101174.77
2019-03-18T04:56:54.338Z,101177.71
2019-03-18T04:59:22.978Z,101182.58
2019-03-18T05:01:52.671Z,101185.27
2019-03-18T05:04:21.213Z,101189.30
2019-03-18T05:06:49.904Z,101189.05
2019-03-18T05:09:18.995Z,101187.98
2019-03-18T05:11:47.505Z,101190.39
2019-03-18T05:14:16.070Z,101199.47
2019-03-18T05:16:44.606Z,101210.41
2019-03-18T05:19:13.739Z,101212.52
2019-03-18T05:21:42.382Z,101218.73
2019-03-18T05:24:11.005Z,101220.67
2019-03-18T05:26:39.536Z,101218.05
2019-03-18T05:29:08.106Z,101223.66
2019-03-18T05:31:36.681Z,101228.74
2019-03-18T05:34:05.304Z,101236.77
2019-03-18T05:36:34.030Z,101248.59
2019-03-18T05:39:02.545Z,101253.47
2019-03-18T05:41:31.112Z,101255.12
2019-03-18T05:43:59.701Z,101255.44
2019-03-18T05:46:28.245Z,101267.89
2019-03-18T05:48:56.889Z,101273.22
2019-03-18T05:51:25.604Z,101275.28
2019-03-18T05:53:54.141Z,101274.13
2019-03-18T05:56:22.692Z,101276.55
2019-03-18T05:58:51.309Z,101278.23
2019-03-18T06:01:19.748Z,101276.32
2019-03-18T06:03:48.296Z,101278.51
2019-03-18T06:06:16.880Z,101277.93
2019-03-18T06:08:45.478Z,101288.69
2019-03-18T06:11:14.036Z,101294.87
2019-03-18T06:13:42.651Z,101301.05
2019-03-18T06:16:11.249Z,101303.55
2019-03-18T06:18:39.871Z,101306.30
2019-03-18T06:21:08.651Z,101312.59
2019-03-18T06:23:37.241Z,101318.59
2019-03-18T06:26:05.718Z,101316.13
2019-03-18T06:28:34.335Z,101334.36
2019-03-18T06:31:02.890Z,101333.46
2019-03-18T06:33:31.367Z,101339.88
2019-03-18T06:35:59.804Z,101340.95
2019-03-18T06:38:28.551Z,101345.30
2019-03-18T06:40:57.067Z,101339.11
2019-03-18T06:43:25.557Z,101350.64
2019-03-18T06:45:54.196Z,101350.44
2019-03-18T06:48:22.720Z,101341.09
2019-03-18T06:50:51.168Z,101351.09
2019-03-18T06:53:19.649Z,101354.42
2019-03-18T06:55:48.570Z,101358.23
2019-03-18T06:58:17.114Z,101361.00
2019-03-18T07:00:45.699Z,101368.27
2019-03-18T07:03:14.308Z,101362.28
2019-03-18T07:05:42.943Z,101366.02
2019-03-18T07:08:11.516Z,101374.89
2019-03-18T07:10:40.155Z,101380.03
2019-03-18T07:13:08.710Z,101375.80
2019-03-18T07:15:37.343Z,101373.92
2019-03-18T07:18:17.560Z,101374.45
2019-03-18T07:20:36.255Z,101381.47
2019-03-18T07:23:04.871Z,101383.88
2019-03-18T07:25:33.508Z,101380.33
2019-03-18T07:28:02.041Z,101383.47
2019-03-18T07:30:30.717Z,101380.88
2019-03-18T07:32:59.458Z,101379.29
2019-03-18T07:35:28.055Z,101385.62
2019-03-18T07:37:56.673Z,101387.66
2019-03-18T07:40:25.506Z,101400.64
2019-03-18T07:42:54.042Z,101410.95
2019-03-18T07:45:22.635Z,101417.31
2019-03-18T07:47:51.278Z,101416.00
2019-03-18T07:50:19.876Z,101422.60
2019-03-18T07:52:48.646Z,101423.84
2019-03-18T07:55:17.101Z,101426.87
2019-03-18T07:57:45.826Z,101441.28
2019-03-18T08:00:15.318Z,101443.01
2019-03-18T08:02:43.901Z,101447.82
2019-03-18T08:05:12.513Z,101452.23
2019-03-18T08:07:41.146Z,101463.83
2019-03-18T08:10:13.559Z,101465.27
2019-03-18T08:12:42.173Z,101468.56
2019-03-18T08:15:11.790Z,101475.22
2019-03-18T08:17:40.331Z,101479.05
2019-03-18T08:20:12.633Z,101484.45
2019-03-18T08:22:41.544Z,101492.27
2019-03-18T08:25:10.996Z,101493.60
2019-03-18T08:27:40.468Z,101494.11
2019-03-18T08:30:16.117Z,101491.34
2019-03-18T08:32:44.712Z,101498.01
2019-03-18T08:35:13.355Z,101498.01
2019-03-18T08:37:42.014Z,101499.61
2019-03-18T08:40:12.208Z,101503.87
2019-03-18T08:42:40.834Z,101503.17
2019-03-18T08:45:13.146Z,101507.08
2019-03-18T08:47:41.851Z,101504.31
2019-03-18T08:50:12.419Z,101507.56
2019-03-18T08:52:41.441Z,101511.33
2019-03-18T08:55:10.922Z,101507.48
2019-03-18T08:57:39.435Z,101518.78
2019-03-18T09:00:11.075Z,101514.84
2019-03-18T09:02:39.628Z,101525.81
2019-03-18T09:05:09.409Z,101527.20
2019-03-18T09:07:38.057Z,101518.73
2019-03-18T09:10:16.861Z,101527.06
2019-03-18T09:12:45.445Z,101529.63
2019-03-18T09:15:14.452Z,101527.45
2019-03-18T09:17:43.128Z,101537.78
2019-03-18T09:20:15.632Z,101529.39
2019-03-18T09:22:44.209Z,101538.29
2019-03-18T09:25:13.518Z,101540.06
2019-03-18T09:27:42.170Z,101536.94
2019-03-18T09:30:19.334Z,101537.95
2019-03-18T09:32:48.153Z,101541.34
2019-03-18T09:35:16.684Z,101545.97
2019-03-18T09:37:45.236Z,101541.82
2019-03-18T09:40:17.638Z,101548.58
2019-03-18T09:42:46.763Z,101547.70
2019-03-18T09:45:16.409Z,101546.13
2019-03-18T09:47:45.027Z,101550.31
2019-03-18T09:50:13.956Z,101545.77
2019-03-18T09:52:43.552Z,101552.39
2019-03-18T09:55:12.168Z,101554.34
2019-03-18T09:57:40.889Z,101559.04
2019-03-18T10:00:17.617Z,101559.89
2019-03-18T10:02:46.191Z,101572.14
2019-03-18T10:05:14.980Z,101571.50
2019-03-18T10:07:43.915Z,101572.47
2019-03-18T10:10:13.874Z,101585.26
2019-03-18T10:12:42.956Z,101579.52
2019-03-18T10:15:17.542Z,101581.67
2019-03-18T10:17:46.173Z,101584.42
2019-03-18T10:20:14.890Z,101588.51
2019-03-18T10:22:43.478Z,101591.05
2019-03-18T10:25:12.173Z,101589.70
2019-03-18T10:27:40.961Z,101600.92
2019-03-18T10:30:11.935Z,101602.27
2019-03-18T10:32:40.488Z,101613.33
2019-03-18T10:35:09.924Z,101615.69
2019-03-18T10:37:38.473Z,101615.03
2019-03-18T10:40:14.500Z,101617.44
2019-03-18T10:42:43.098Z,101612.61
2019-03-18T10:45:12.894Z,101620.55
2019-03-18T10:47:41.513Z,101620.94
2019-03-18T10:50:12.883Z,101621.98
2019-03-18T10:52:41.505Z,101622.64
2019-03-18T10:55:10.699Z,101617.61
2019-03-18T10:57:39.342Z,101617.84
2019-03-18T11:00:20.640Z,101611.23
2019-03-18T11:02:49.240Z,101623.17
2019-03-18T11:05:17.900Z,101625.83
2019-03-18T11:07:46.608Z,101618.31
2019-03-18T11:10:16.721Z,101617.15
2019-03-18T11:12:45.336Z,101619.70
2019-03-18T11:15:23.026Z,101615.25
2019-03-18T11:17:51.550Z,101630.92
2019-03-18T11:20:20.188Z,101621.13
2019-03-18T11:22:48.755Z,101630.40
2019-03-18T11:25:17.772Z,101628.27
2019-03-18T11:27:46.693Z,101639.47
2019-03-18T11:30:17.188Z,101629.41
2019-03-18T11:32:45.784Z,101636.61
2019-03-18T11:35:15.427Z,101638.20
2019-03-18T11:37:44.020Z,101636.12
2019-03-18T11:40:15.089Z,101629.64
2019-03-18T11:42:43.675Z,101637.04
2019-03-18T11:45:14.133Z,101639.98
2019-03-18T11:47:43.719Z,101638.80
2019-03-18T11:50:17.804Z,101629.55
2019-03-18T11:52:46.502Z,101618.81
2019-03-18T11:55:27.751Z,101627.58
2019-03-18T11:57:56.337Z,101631.08
2019-03-18T12:00:25.843Z,101625.31
2019-03-18T12:02:55.581Z,101636.05
2019-03-18T12:05:25.281Z,101637.75
2019-03-18T12:07:53.876Z,101636.73
2019-03-18T12:10:25.344Z,101641.59
2019-03-18T12:12:53.058Z,101638.52
2019-03-18T12:15:25.799Z,101645.94
2019-03-18T12:17:54.693Z,101649.36
2019-03-18T12:20:25.228Z,101647.66
2019-03-18T12:22:53.609Z,101654.28
2019-03-18T12:25:22.120Z,101665.94
2019-03-18T12:27:51.011Z,101669.30
2019-03-18T12:30:23.836Z,101675.95
2019-03-18T12:32:52.934Z,101667.73
2019-03-18T12:35:21.673Z,101670.06
2019-03-18T12:37:50.535Z,101674.30
2019-03-18T12:40:19.274Z,101680.22
2019-03-18T12:42:47.863Z,101681.35
2019-03-18T12:45:20.151Z,101688.94
2019-03-18T12:47:48.993Z,101691.36
2019-03-18T12:50:38.755Z,101695.58
2019-03-18T12:52:52.980Z,101699.52
2019-03-18T12:55:21.732Z,101699.42
2019-03-18T12:57:50.287Z,101699.02
2019-03-18T13:00:33.009Z,101695.66
2019-03-18T13:03:01.613Z,101706.89
2019-03-18T13:05:30.220Z,101703.44
2019-03-18T13:07:58.817Z,101696.58
2019-03-18T13:10:27.315Z,101695.14
2019-03-18T13:12:55.977Z,101698.55
2019-03-18T13:15:24.577Z,101689.27
2019-03-18T13:17:53.203Z,101685.69
2019-03-18T13:20:22.494Z,101691.52
2019-03-18T13:22:53.752Z,101693.17
2019-03-18T13:25:21.763Z,101679.58
2019-03-18T13:27:50.382Z,101676.59
2019-03-18T13:30:20.039Z,101677.14
2019-03-18T13:32:48.877Z,101679.28
2019-03-18T13:35:17.514Z,101677.87
2019-03-18T13:37:46.030Z,101685.33
2019-03-18T13:40:18.729Z,101691.17
2019-03-18T13:42:47.368Z,101693.84
2019-03-18T13:45:19.589Z,101693.58
2019-03-18T13:47:48.251Z,101682.41
2019-03-18T13:50:17.923Z,101683.12
2019-03-18T13:52:46.638Z,101682.92
2019-03-18T13:55:15.792Z,101690.63
2019-03-18T13:57:44.531Z,101689.08
2019-03-18T14:00:15.695Z,101693.75
2019-03-18T14:02:44.685Z,101684.60
2019-03-18T14:05:13.781Z,101684.20
2019-03-18T14:07:42.439Z,101679.41
2019-03-18T14:10:16.598Z,101680.63
2019-03-18T14:12:45.216Z,101698.30
2019-03-18T14:15:25.080Z,101687.55
2019-03-18T14:17:53.590Z,101699.67
2019-03-18T14:20:25.883Z,101697.14
2019-03-18T14:22:54.596Z,101696.89
2019-03-18T14:25:23.347Z,101691.17
2019-03-18T14:27:51.933Z,101699.70
2019-03-18T14:30:21.447Z,101707.59
2019-03-18T14:32:50.152Z,101710.62
2019-03-18T14:35:21.566Z,101709.67
2019-03-18T14:37:49.232Z,101711.39
2019-03-18T14:40:22.782Z,101710.91
2019-03-18T14:42:51.368Z,101713.30
2019-03-18T14:45:21.219Z,101711.53
2019-03-18T14:47:50.131Z,101712.19
2019-03-18T14:50:19.419Z,101717.41
2019-03-18T14:52:48.262Z,101720.77
2019-03-18T14:55:17.878Z,101729.58
2019-03-18T14:57:46.455Z,101740.97
2019-03-18T15:00:29.081Z,101742.00
2019-03-18T15:02:57.737Z,101749.36
2019-03-18T15:05:26.396Z,101740.45
2019-03-18T15:07:54.993Z,101748.92
2019-03-18T15:10:32.515Z,101765.44
2019-03-18T15:13:01.074Z,101770.61
2019-03-18T15:15:29.764Z,101782.60
2019-03-18T15:17:58.425Z,101797.03
2019-03-18T15:20:27.927Z,101799.45
2019-03-18T15:22:56.586Z,101803.44
2019-03-18T15:25:35.476Z,101808.97
2019-03-18T15:28:04.109Z,101806.56
2019-03-18T15:30:32.767Z,101814.66
2019-03-18T15:33:01.402Z,101803.84
2019-03-18T15:35:29.935Z,101804.66
2019-03-18T15:37:58.550Z,101801.95
2019-03-18T15:40:28.301Z,101802.70
2019-03-18T15:42:56.982Z,101805.13
2019-03-18T15:45:25.578Z,101807.27
2019-03-18T15:47:54.136Z,101815.25
2019-03-18T15:50:24.127Z,101806.43
2019-03-18T15:52:52.672Z,101811.78
2019-03-18T15:55:23.812Z,101812.97
2019-03-18T15:57:51.560Z,101821.32
2019-03-18T16:00:21.296Z,101821.62
2019-03-18T16:02:49.913Z,101819.50
2019-03-18T16:05:18.581Z,101827.89
2019-03-18T16:07:47.150Z,101830.56
2019-03-18T16:10:19.331Z,101836.81
2019-03-18T16:12:48.608Z,101835.48
2019-03-18T16:15:18.687Z,101834.64
2019-03-18T16:17:47.286Z,101836.50
2019-03-18T16:20:21.256Z,101837.45
2019-03-18T16:22:49.819Z,101837.00
2019-03-18T16:25:18.674Z,101841.59
2019-03-18T16:27:47.333Z,101839.34
2019-03-18T16:30:22.603Z,101845.39
2019-03-18T16:32:51.248Z,101850.08
2019-03-18T16:35:20.205Z,101850.08
2019-03-18T16:37:48.716Z,101850.37
2019-03-18T16:40:24.647Z,101867.13
2019-03-18T16:42:53.294Z,101865.49
2019-03-18T16:45:21.953Z,101867.95
2019-03-18T16:47:50.613Z,101864.19
2019-03-18T16:50:24.666Z,101869.84
2019-03-18T16:52:53.537Z,101877.13
2019-03-18T16:55:22.064Z,101877.63
2019-03-18T16:57:50.914Z,101874.33
2019-03-18T17:00:24.222Z,101885.75
2019-03-18T17:02:52.947Z,101886.63
2019-03-18T17:05:21.668Z,101900.12
2019-03-18T17:07:50.286Z,101900.58
2019-03-18T17:10:18.976Z,101897.08
2019-03-18T17:12:47.601Z,101900.02
2019-03-18T17:15:17.994Z,101907.87
2019-03-18T17:17:46.535Z,101904.91
2019-03-18T17:20:18.161Z,101915.70
2019-03-18T17:22:49.759Z,101917.89
2019-03-18T17:25:19.125Z,101916.02
2019-03-18T17:27:47.712Z,101916.59
2019-03-18T17:30:18.242Z,101922.28
2019-03-18T17:32:47.187Z,101927.20
2019-03-18T17:35:15.781Z,101919.88
2019-03-18T17:37:44.367Z,101928.97
2019-03-18T17:40:15.313Z,101934.33
2019-03-18T17:42:43.901Z,101938.63
2019-03-18T17:45:14.081Z,101945.05
2019-03-18T17:47:42.634Z,101946.03
2019-03-18T17:50:14.192Z,101943.33
2019-03-18T17:52:42.771Z,101952.47
2019-03-18T17:55:11.378Z,101953.12
2019-03-18T17:57:39.879Z,101948.30
2019-03-18T18:00:17.210Z,101951.05
2019-03-18T18:02:45.888Z,101959.94
2019-03-18T18:05:14.986Z,101961.28
2019-03-18T18:07:43.637Z,101968.91
2019-03-18T18:10:12.449Z,101967.90
2019-03-18T18:12:41.159Z,101978.71
2019-03-18T18:15:13.018Z,101980.97
2019-03-18T18:17:41.633Z,101984.72
2019-03-18T18:20:16.653Z,101995.75
2019-03-18T18:22:45.251Z,101996.72
2019-03-18T18:25:14.456Z,101998.19
2019-03-18T18:27:43.055Z,102001.57
2019-03-18T18:30:16.610Z,101999.86
2019-03-18T18:32:45.163Z,102001.34
2019-03-18T18:35:14.053Z,102006.13
2019-03-18T18:37:43.757Z,102007.27
2019-03-18T18:40:23.588Z,102011.80
2019-03-18T18:42:52.543Z,102019.45
2019-03-18T18:45:21.443Z,102023.28
2019-03-18T18:47:50.047Z,102027.41
2019-03-18T18:50:18.679Z,102037.70
2019-03-18T18:52:47.269Z,102036.43
2019-03-18T18:55:15.955Z,102039.25
2019-03-18T18:57:44.655Z,102045.35
2019-03-18T19:00:16.409Z,102044.88
2019-03-18T19:02:48.002Z,102041.08
2019-03-18T19:05:17.417Z,102044.81
2019-03-18T19:07:46.256Z,102050.16
2019-03-18T19:10:16.190Z,102050.50
2019-03-18T19:12:44.682Z,102056.12
2019-03-18T19:15:31.282Z,102061.89
2019-03-18T19:18:00.000Z,102058.81
2019-03-18T19:20:28.564Z,102063.58
2019-03-18T19:22:57.096Z,102065.00
2019-03-18T19:25:25.795Z,102071.61
2019-03-18T19:27:54.782Z,102069.50
2019-03-18T19:30:24.277Z,102072.58
2019-03-18T19:32:52.951Z,102076.92
2019-03-18T19:35:22.568Z,102079.80
2019-03-18T19:37:51.131Z,102092.41
2019-03-18T19:40:26.195Z,102083.84
2019-03-18T19:42:54.786Z,102091.30
2019-03-18T19:45:23.783Z,102094.42
2019-03-18T19:47:53.456Z,102098.55
2019-03-18T19:50:26.879Z,102102.16
2019-03-18T19:52:55.518Z,102103.73
2019-03-18T19:55:24.169Z,102103.12
2019-03-18T19:57:52.817Z,102104.92
2019-03-18T20:00:23.101Z,102112.91
2019-03-18T20:02:51.782Z,102118.16
2019-03-18T20:05:20.432Z,102121.20
2019-03-18T20:07:49.045Z,102124.14
2019-03-18T20:10:18.951Z,102118.48
2019-03-18T20:12:47.642Z,102118.55
2019-03-18T20:15:19.658Z,102120.91
2019-03-18T20:17:48.343Z,102122.03
2019-03-18T20:20:19.001Z,102135.48
2019-03-18T20:22:47.720Z,102130.59
2019-03-18T20:25:16.819Z,102135.76
2019-03-18T20:27:45.454Z,102137.69
2019-03-18T20:30:21.772Z,102142.16
2019-03-18T20:32:50.554Z,102154.88
2019-03-18T20:35:22.834Z,102156.31
2019-03-18T20:37:52.042Z,102159.07
2019-03-18T20:40:21.477Z,102166.18
2019-03-18T20:42:50.103Z,102174.19
2019-03-18T20:45:25.796Z,102172.92
2019-03-18T20:47:54.406Z,102175.33
2019-03-18T20:50:26.311Z,102178.05
2019-03-18T20:52:55.002Z,102187.44
2019-03-18T20:55:23.519Z,102182.95
2019-03-18T20:57:52.222Z,102188.51
2019-03-18T21:00:24.337Z,102183.48
2019-03-18T21:02:53.129Z,102189.98
2019-03-18T21:05:21.716Z,102198.34
2019-03-18T21:07:50.536Z,102196.89
2019-03-18T21:10:22.144Z,102205.19
2019-03-18T21:12:50.795Z,102208.15
2019-03-18T21:15:19.514Z,102222.62
2019-03-18T21:17:48.085Z,102224.33
2019-03-18T21:20:18.760Z,102219.09
2019-03-18T21:22:47.343Z,102227.41
2019-03-18T21:25:15.976Z,102227.31
2019-03-18T21:27:44.632Z,102221.26
2019-03-18T21:30:21.974Z,102231.69
2019-03-18T21:32:50.749Z,102227.34
2019-03-18T21:35:19.549Z,102233.30
2019-03-18T21:37:48.083Z,102232.47
2019-03-18T21:40:21.245Z,102238.03
2019-03-18T21:42:49.864Z,102241.13
2019-03-18T21:45:23.685Z,102248.22
2019-03-18T21:47:52.615Z,102257.31
2019-03-18T21:50:21.286Z,102263.09
2019-03-18T21:52:49.897Z,102271.08
2019-03-18T21:55:18.407Z,102282.56
2019-03-18T21:57:47.085Z,102276.23
2019-03-18T22:00:23.009Z,102274.32
2019-03-18T22:02:51.636Z,102266.05
2019-03-18T22:05:20.279Z,102263.41
2019-03-18T22:07:48.883Z,102257.19
2019-03-18T22:10:21.325Z,102264.10
2019-03-18T22:12:50.056Z,102267.27
2019-03-18T22:15:18.648Z,102264.56
2019-03-18T22:17:47.231Z,102265.97
2019-03-18T22:20:16.635Z,102268.85
2019-03-18T22:22:45.324Z,102269.02
2019-03-18T22:25:14.720Z,102274.41
2019-03-18T22:27:43.329Z,102276.38
2019-03-18T22:30:15.963Z,102277.30
2019-03-18T22:32:45.085Z,102287.81
2019-03-18T22:35:13.771Z,102290.00
2019-03-18T22:37:42.581Z,102287.37
2019-03-18T22:40:15.251Z,102291.77
2019-03-18T22:42:44.233Z,102290.31
2019-03-18T22:45:13.721Z,102297.22
2019-03-18T22:47:42.341Z,102300.44
2019-03-18T22:50:13.819Z,102303.80
2019-03-18T22:52:42.859Z,102302.48
2019-03-18T22:55:14.883Z,102296.45
2019-03-18T22:57:43.574Z,102300.15
2019-03-18T23:00:17.047Z,102306.02
2019-03-18T23:02:46.647Z,102308.06
2019-03-18T23:05:15.639Z,102310.76
2019-03-18T23:07:44.272Z,102314.35
2019-03-18T23:10:12.985Z,102314.18
2019-03-18T23:12:41.619Z,102321.55
2019-03-18T23:15:10.291Z,102320.68
2019-03-18T23:17:39.001Z,102317.89
2019-03-18T23:20:08.431Z,102315.62
2019-03-18T23:22:36.939Z,102312.44
2019-03-18T23:25:08.209Z,102327.98
2019-03-18T23:27:37.031Z,102331.63
2019-03-18T23:30:13.018Z,102330.80
2019-03-18T23:32:41.646Z,102326.28
2019-03-18T23:35:10.655Z,102327.16
2019-03-18T23:37:39.580Z,102336.38
2019-03-18T23:40:10.162Z,102332.30
2019-03-18T23:42:38.855Z,102331.77
2019-03-18T23:45:09.059Z,102330.45
2019-03-18T23:47:37.624Z,102329.68
2019-03-18T23:50:13.689Z,102329.78
2019-03-18T23:52:42.388Z,102334.98
2019-03-18T23:55:18.911Z,102337.03
2019-03-18T23:57:41.626Z,102333.48
